Time;durP1;ratioP1;P1;durP2;ratioP2;P2;SDS_P1;SDS_P2;PMS_P1;PMS_P2;Temp;Humidity;BMP_temperature;BMP_pressure;BME280_temperature;BME280_humidity;BME280_pressure;Samples;Min_cycle;Max_cycle;Signal;HPM_P1;HPM_P2
2021/07/21 00:00:40;;;;;;;10.75;7.78;;;16.00;94.20;;;;;;6246836;28;20510;-77
2021/07/21 00:03:42;;;;;;;14.23;8.55;;;16.00;94.60;;;;;;6244966;28;20132;-75
2021/07/21 00:06:44;;;;;;;18.33;8.10;;;15.90;94.60;;;;;;6246371;28;20514;-77
2021/07/21 00:09:46;;;;;;;12.25;8.15;;;15.90;94.80;;;;;;6247422;28;20136;-75
2021/07/21 00:16:16;;;;;;;13.23;8.52;;;15.80;95.20;;;;;;6246338;28;20045;-76
2021/07/21 00:22:39;;;;;;;10.45;7.95;;;15.70;95.60;;;;;;6246618;28;20041;-76
2021/07/21 00:25:41;;;;;;;11.15;8.20;;;15.60;95.90;;;;;;6246740;28;20411;-76
2021/07/21 00:28:43;;;;;;;11.23;8.57;;;15.60;95.80;;;;;;6246340;28;20127;-76
2021/07/21 00:31:46;;;;;;;11.95;8.68;;;15.60;95.90;;;;;;6246493;28;20128;-76
2021/07/21 00:34:48;;;;;;;12.13;8.80;;;15.60;95.90;;;;;;6246399;28;20103;-77
2021/07/21 00:37:50;;;;;;;15.95;9.05;;;15.50;96.00;;;;;;6246471;28;20518;-77
2021/07/21 00:40:51;;;;;;;19.45;9.95;;;15.50;96.00;;;;;;6246420;28;20042;-76
2021/07/21 00:43:53;;;;;;;14.48;9.20;;;15.50;96.20;;;;;;6246450;28;20046;-76
2021/07/21 00:46:56;;;;;;;13.75;9.68;;;15.50;96.10;;;;;;6246081;28;20128;-76
2021/07/21 00:49:58;;;;;;;11.73;8.68;;;15.50;96.00;;;;;;6246908;28;20140;-76
2021/07/21 00:53:00;;;;;;;12.93;9.55;;;15.50;95.80;;;;;;6246123;28;20049;-76
2021/07/21 00:56:02;;;;;;;11.55;8.98;;;15.50;95.70;;;;;;6245886;28;20077;-76
2021/07/21 00:59:04;;;;;;;13.60;9.55;;;15.40;95.80;;;;;;6246380;28;20050;-76
2021/07/21 01:02:08;;;;;;;14.32;9.90;;;15.40;95.90;;;;;;6244097;28;20564;-75
2021/07/21 01:05:12;;;;;;;12.20;9.32;;;15.40;96.30;;;;;;6246560;28;20127;-76
2021/07/21 01:08:14;;;;;;;16.80;9.02;;;15.40;96.50;;;;;;6248942;28;20128;-76
2021/07/21 01:11:22;;;;;;;13.48;8.70;;;15.40;96.40;;;;;;6250833;28;20048;-77
2021/07/21 01:14:31;;;;;;;11.10;8.85;;;15.30;96.40;;;;;;6250315;28;20080;-77
2021/07/21 01:17:39;;;;;;;11.32;8.63;;;15.30;96.40;;;;;;6250767;28;20057;-78
2021/07/21 01:21:09;;;;;;;12.52;8.52;;;15.30;96.70;;;;;;6250667;28;20180;-77
2021/07/21 01:24:28;;;;;;;13.30;8.93;;;15.20;96.40;;;;;;6250396;28;20065;-75
2021/07/21 01:27:33;;;;;;;13.43;10.30;;;15.20;96.70;;;;;;6249926;28;20143;-76
2021/07/21 01:30:38;;;;;;;14.98;9.27;;;15.20;96.90;;;;;;6249924;28;20184;-76
2021/07/21 01:33:43;;;;;;;10.75;8.32;;;15.20;97.00;;;;;;6250694;28;20455;-77
2021/07/21 01:36:50;;;;;;;11.30;8.25;;;15.20;97.00;;;;;;6249733;28;20152;-76
2021/07/21 01:40:00;;;;;;;11.57;8.52;;;15.20;97.00;;;;;;6249888;28;20088;-76
2021/07/21 01:43:07;;;;;;;13.40;9.55;;;15.20;97.10;;;;;;6249874;28;20505;-76
2021/07/21 01:46:09;;;;;;;11.43;9.15;;;15.10;97.10;;;;;;6249848;28;20080;-76
2021/07/21 01:49:12;;;;;;;11.50;8.50;;;15.10;97.20;;;;;;6250322;28;20135;-76
2021/07/21 01:52:16;;;;;;;12.82;9.90;;;15.10;97.40;;;;;;6249626;28;20124;-76
2021/07/21 01:55:21;;;;;;;14.63;9.13;;;15.10;97.70;;;;;;6249814;28;20127;-76
2021/07/21 01:58:28;;;;;;;12.70;9.02;;;15.20;97.60;;;;;;6249511;28;20143;-75
2021/07/21 02:01:33;;;;;;;14.05;8.77;;;15.20;97.50;;;;;;6250143;28;20052;-76
2021/07/21 02:04:39;;;;;;;13.35;8.68;;;15.20;97.10;;;;;;6249399;28;20045;-76
2021/07/21 02:07:43;;;;;;;16.52;10.02;;;15.20;97.10;;;;;;6249319;28;20126;-76
2021/07/21 02:10:46;;;;;;;13.00;9.13;;;15.20;97.10;;;;;;6249489;28;20056;-76
2021/07/21 02:13:49;;;;;;;11.98;8.43;;;15.20;96.80;;;;;;6249886;28;20041;-76
2021/07/21 02:16:51;;;;;;;14.05;8.35;;;15.30;96.70;;;;;;6261830;23;20037;-79
2021/07/21 02:19:54;;;;;;;13.82;9.30;;;15.30;96.30;;;;;;6231584;28;20070;-79
2021/07/21 02:22:56;;;;;;;13.75;8.98;;;15.40;95.80;;;;;;6231846;28;20115;-78
2021/07/21 02:25:59;;;;;;;12.23;9.43;;;15.30;95.70;;;;;;6232255;28;20050;-78
2021/07/21 02:29:04;;;;;;;11.57;8.45;;;15.40;95.90;;;;;;6232011;28;20077;-79
2021/07/21 02:32:11;;;;;;;13.75;9.63;;;15.30;96.00;;;;;;6231753;28;20126;-78
2021/07/21 02:35:18;;;;;;;15.73;9.73;;;15.30;96.00;;;;;;6231434;28;20046;-78
2021/07/21 02:38:20;;;;;;;10.57;7.43;;;15.30;95.90;;;;;;6231719;28;20420;-78
2021/07/21 02:41:22;;;;;;;13.95;8.55;;;15.40;95.90;;;;;;6232362;28;20113;-79
2021/07/21 02:44:25;;;;;;;11.73;8.57;;;15.40;95.70;;;;;;6231116;28;20410;-79
2021/07/21 02:47:28;;;;;;;11.90;8.55;;;15.40;95.70;;;;;;6231863;28;20093;-78
2021/07/21 02:50:30;;;;;;;11.02;7.68;;;15.40;95.60;;;;;;6231219;28;20048;-79
2021/07/21 02:53:33;;;;;;;11.35;8.40;;;15.40;95.40;;;;;;6232680;28;20048;-78
2021/07/21 02:56:47;;;;;;;12.93;8.23;;;15.50;95.30;;;;;;6231322;28;20125;-78
2021/07/21 02:59:54;;;;;;;14.40;9.80;;;15.40;95.10;;;;;;6230436;28;20172;-78
2021/07/21 03:02:57;;;;;;;15.50;9.90;;;15.40;95.30;;;;;;6232356;28;20841;-79
2021/07/21 03:06:04;;;;;;;11.45;7.97;;;15.40;95.20;;;;;;6232316;28;20782;-79
2021/07/21 03:09:06;;;;;;;12.68;8.18;;;15.40;95.40;;;;;;6230662;28;20061;-78
2021/07/21 03:12:12;;;;;;;16.58;10.05;;;15.40;95.30;;;;;;6228442;28;20176;-78
2021/07/21 03:15:16;;;;;;;12.45;8.70;;;15.30;95.50;;;;;;6227472;28;20181;-78
2021/07/21 03:18:21;;;;;;;11.52;7.80;;;15.30;95.50;;;;;;6227524;28;20137;-78
2021/07/21 03:21:24;;;;;;;13.52;9.02;;;15.30;95.40;;;;;;6228013;28;20534;-78
2021/07/21 03:24:27;;;;;;;12.20;8.73;;;15.30;95.60;;;;;;6227683;28;20536;-78
2021/07/21 03:27:29;;;;;;;9.38;8.32;;;15.30;96.50;;;;;;6227687;28;20120;-78
2021/07/21 03:30:34;;;;;;;11.43;8.75;;;15.40;96.10;;;;;;6227152;28;20038;-77
2021/07/21 03:33:36;;;;;;;12.55;8.52;;;15.40;95.40;;;;;;6222785;28;20136;-77
2021/07/21 03:36:42;;;;;;;10.55;8.60;;;15.40;95.10;;;;;;6221938;28;20046;-77
2021/07/21 03:39:46;;;;;;;18.75;9.70;;;15.40;95.20;;;;;;6222914;28;20125;-77
2021/07/21 03:42:51;;;;;;;15.82;10.45;;;15.40;95.00;;;;;;6222327;28;20069;-77
2021/07/21 03:45:58;;;;;;;18.08;9.55;;;15.30;95.20;;;;;;6222829;28;20140;-76
2021/07/21 03:49:00;;;;;;;15.75;9.05;;;15.30;95.10;;;;;;6222420;28;20099;-77
2021/07/21 03:52:02;;;;;;;14.23;9.43;;;15.40;95.00;;;;;;6222444;28;20491;-77
2021/07/21 03:55:06;;;;;;;15.07;9.40;;;15.40;94.60;;;;;;6222248;28;20050;-77
2021/07/21 03:58:09;;;;;;;15.45;8.40;;;15.40;94.70;;;;;;6222462;28;20050;-77
2021/07/21 04:01:13;;;;;;;14.85;9.43;;;15.50;94.40;;;;;;6222889;28;20547;-77
2021/07/21 04:04:19;;;;;;;15.43;8.23;;;15.50;94.00;;;;;;6222609;28;20474;-77
2021/07/21 04:07:21;;;;;;;11.15;7.40;;;15.50;94.40;;;;;;6222390;28;20136;-77
2021/07/21 04:10:27;;;;;;;13.55;8.60;;;15.50;94.10;;;;;;6222773;28;20060;-77
2021/07/21 04:13:29;;;;;;;9.45;6.90;;;15.60;93.50;;;;;;6222985;28;20046;-77
2021/07/21 04:16:34;;;;;;;11.15;8.13;;;15.70;93.50;;;;;;6221910;28;20072;-77
2021/07/21 04:19:37;;;;;;;11.77;8.02;;;15.70;94.00;;;;;;6222331;28;20120;-77
2021/07/21 04:22:41;;;;;;;16.83;6.95;;;15.80;93.90;;;;;;6222550;28;20086;-77
2021/07/21 04:25:43;;;;;;;16.55;7.55;;;15.80;93.70;;;;;;6222174;28;20050;-77
2021/07/21 04:28:46;;;;;;;9.82;7.43;;;15.80;93.20;;;;;;6221703;28;20101;-77
2021/07/21 04:31:50;;;;;;;15.20;7.70;;;15.90;93.00;;;;;;6222062;28;20067;-77
2021/07/21 04:34:53;;;;;;;12.82;8.07;;;16.00;92.80;;;;;;6221799;28;20070;-77
2021/07/21 04:37:56;;;;;;;9.60;8.20;;;16.00;92.10;;;;;;6222120;28;20645;-77
2021/07/21 04:40:58;;;;;;;10.13;7.68;;;16.20;91.80;;;;;;6221738;28;20050;-77
2021/07/21 04:44:01;;;;;;;10.05;7.20;;;16.30;91.40;;;;;;6227807;28;20526;-77
2021/07/21 04:47:06;;;;;;;24.27;10.27;;;16.40;91.20;;;;;;6227604;28;20123;-77
2021/07/21 04:50:11;;;;;;;19.95;9.23;;;16.60;90.90;;;;;;6226731;28;20566;-77
2021/07/21 04:53:14;;;;;;;12.43;7.75;;;16.70;90.10;;;;;;6227284;28;20049;-77
2021/07/21 04:56:15;;;;;;;11.05;7.90;;;16.60;89.00;;;;;;6227911;28;20127;-77
2021/07/21 04:59:17;;;;;;;12.48;8.23;;;16.70;88.90;;;;;;6226465;28;20042;-77
2021/07/21 05:02:20;;;;;;;13.07;7.53;;;16.70;89.10;;;;;;6226358;28;20070;-77
2021/07/21 05:05:22;;;;;;;8.40;6.72;;;16.80;87.90;;;;;;6227364;28;20081;-77
2021/07/21 05:08:24;;;;;;;16.48;8.27;;;16.80;88.60;;;;;;6226745;28;20046;-77
2021/07/21 05:11:26;;;;;;;13.70;7.28;;;16.90;87.10;;;;;;6227197;28;20050;-77
2021/07/21 05:14:28;;;;;;;9.60;6.55;;;17.00;85.80;;;;;;6227844;28;20046;-77
2021/07/21 05:17:31;;;;;;;12.90;6.65;;;17.20;84.80;;;;;;6226730;28;20131;-77
2021/07/21 05:20:33;;;;;;;8.07;6.07;;;17.30;84.30;;;;;;6226611;28;20073;-77
2021/07/21 05:23:36;;;;;;;9.30;5.50;;;17.50;82.80;;;;;;6228372;28;20087;-77
2021/07/21 05:26:40;;;;;;;13.35;6.80;;;17.70;81.20;;;;;;6229511;28;20065;-77
2021/07/21 05:29:43;;;;;;;13.10;6.97;;;17.80;81.20;;;;;;6231028;28;20055;-77
2021/07/21 05:32:47;;;;;;;7.68;5.55;;;18.00;79.30;;;;;;6230177;28;20049;-78
2021/07/21 05:35:49;;;;;;;11.05;6.68;;;18.20;78.90;;;;;;6230482;28;20053;-78
2021/07/21 05:38:51;;;;;;;10.90;7.15;;;18.40;77.60;;;;;;6230194;28;20057;-77
2021/07/21 05:41:56;;;;;;;10.00;6.32;;;18.50;77.20;;;;;;6230599;28;20529;-78
2021/07/21 05:44:58;;;;;;;11.88;7.05;;;18.60;75.70;;;;;;6229564;28;20129;-77
2021/07/21 05:48:01;;;;;;;12.15;6.63;;;18.70;75.50;;;;;;6229881;28;20574;-77
2021/07/21 05:51:03;;;;;;;13.55;6.57;;;18.80;74.80;;;;;;6229705;28;20119;-77
2021/07/21 05:54:05;;;;;;;11.95;7.80;;;18.90;74.50;;;;;;6230205;28;20129;-77
2021/07/21 05:57:07;;;;;;;15.57;6.55;;;19.00;74.40;;;;;;6228389;28;20412;-78
2021/07/21 06:00:10;;;;;;;11.07;6.30;;;19.20;73.60;;;;;;6228917;28;20560;-77
2021/07/21 06:03:15;;;;;;;9.75;6.85;;;19.30;72.90;;;;;;6225934;28;20050;-77
2021/07/21 06:06:17;;;;;;;8.13;5.15;;;19.30;72.00;;;;;;6217479;28;20054;-77
2021/07/21 06:09:18;;;;;;;8.20;5.82;;;19.30;71.80;;;;;;6226039;28;20131;-77
2021/07/21 06:12:20;;;;;;;11.88;6.03;;;19.30;70.70;;;;;;6225736;28;20052;-77
2021/07/21 06:15:26;;;;;;;8.32;5.70;;;19.40;70.80;;;;;;6226710;28;20053;-77
2021/07/21 06:18:29;;;;;;;6.97;5.88;;;19.90;69.10;;;;;;6225664;28;20045;-77
2021/07/21 06:21:31;;;;;;;6.43;5.70;;;20.60;67.00;;;;;;6224997;28;20092;-77
2021/07/21 06:24:33;;;;;;;7.03;5.18;;;21.10;65.60;;;;;;6223987;28;20087;-77
2021/07/21 06:27:35;;;;;;;8.85;6.65;;;21.40;63.90;;;;;;6223800;28;20129;-77
2021/07/21 06:30:37;;;;;;;8.52;5.43;;;21.60;62.80;;;;;;6225098;28;20046;-77
2021/07/21 06:33:40;;;;;;;9.88;6.18;;;21.70;62.40;;;;;;6226980;28;20183;-78
2021/07/21 06:36:42;;;;;;;11.32;6.72;;;21.80;61.70;;;;;;6226742;28;20054;-77
2021/07/21 06:39:44;;;;;;;10.73;5.82;;;21.90;62.00;;;;;;6226307;28;20080;-77
2021/07/21 06:42:45;;;;;;;8.02;5.60;;;22.10;61.60;;;;;;6232815;28;20046;-77
2021/07/21 06:45:47;;;;;;;7.60;5.32;;;22.40;61.40;;;;;;6226042;28;20057;-77
2021/07/21 06:48:52;;;;;;;8.10;5.40;;;22.80;60.80;;;;;;6226427;28;20581;-77
2021/07/21 06:51:54;;;;;;;9.95;5.75;;;23.00;59.00;;;;;;6226769;28;20060;-78
2021/07/21 06:54:56;;;;;;;10.68;5.03;;;22.90;58.00;;;;;;6226701;28;20045;-77
2021/07/21 06:57:58;;;;;;;9.32;6.28;;;22.60;58.40;;;;;;6224987;28;20511;-77
2021/07/21 07:01:00;;;;;;;7.80;6.03;;;22.10;59.50;;;;;;6225786;28;20066;-77
2021/07/21 07:04:03;;;;;;;10.38;5.90;;;21.80;61.20;;;;;;6223904;28;20500;-77
2021/07/21 07:07:05;;;;;;;8.18;5.95;;;21.80;60.90;;;;;;6225431;28;20132;-77
2021/07/21 07:10:09;;;;;;;9.18;5.53;;;21.60;61.10;;;;;;6225841;28;20049;-77
2021/07/21 07:13:10;;;;;;;7.47;5.18;;;21.60;61.30;;;;;;6224006;28;20045;-77
2021/07/21 07:16:14;;;;;;;7.20;5.40;;;21.50;62.00;;;;;;6223312;28;20108;-77
2021/07/21 07:19:17;;;;;;;7.97;6.28;;;21.60;61.90;;;;;;6223588;28;20060;-77
2021/07/21 07:22:19;;;;;;;10.52;5.30;;;21.70;61.90;;;;;;6223507;28;20097;-77
2021/07/21 07:25:21;;;;;;;8.70;5.28;;;21.80;61.60;;;;;;6224201;28;20072;-77
2021/07/21 07:28:23;;;;;;;8.30;5.20;;;21.90;62.40;;;;;;6224702;28;20050;-78
2021/07/21 07:31:24;;;;;;;8.48;5.85;;;22.30;61.70;;;;;;6228503;28;20133;-78
2021/07/21 07:34:28;;;;;;;6.22;5.53;;;22.40;60.60;;;;;;6230061;28;20124;-77
2021/07/21 07:37:30;;;;;;;7.55;5.85;;;22.40;60.30;;;;;;6228941;28;20197;-78
2021/07/21 07:40:31;;;;;;;11.88;6.88;;;22.50;60.50;;;;;;6227079;28;20124;-78
2021/07/21 07:43:36;;;;;;;8.93;5.97;;;22.70;59.60;;;;;;6222830;28;20064;-78
2021/07/21 07:46:38;;;;;;;8.60;5.00;;;22.70;60.20;;;;;;6222175;28;20049;-78
2021/07/21 07:49:42;;;;;;;9.23;5.97;;;22.80;60.00;;;;;;6223739;28;20073;-77
2021/07/21 07:52:43;;;;;;;6.53;5.43;;;22.90;59.10;;;;;;6225811;28;20042;-78
2021/07/21 07:55:45;;;;;;;12.85;6.90;;;22.90;59.30;;;;;;6223701;28;20077;-78
2021/07/21 07:58:47;;;;;;;7.55;5.05;;;22.90;59.70;;;;;;6223984;28;20070;-78
2021/07/21 08:01:49;;;;;;;7.43;5.38;;;22.90;60.50;;;;;;6227252;28;20097;-79
2021/07/21 08:04:53;;;;;;;11.32;5.65;;;23.00;60.40;;;;;;6227628;28;20073;-78
2021/07/21 08:07:56;;;;;;;9.77;5.85;;;23.10;60.60;;;;;;6225299;28;20050;-78
2021/07/21 08:10:58;;;;;;;7.85;6.07;;;23.10;60.00;;;;;;6223754;28;20042;-79
2021/07/21 08:14:00;;;;;;;9.90;6.50;;;23.20;59.70;;;;;;6227904;28;20077;-79
2021/07/21 08:17:02;;;;;;;11.35;6.07;;;23.40;58.40;;;;;;6224434;28;20135;-78
2021/07/21 08:20:08;;;;;;;10.98;6.25;;;23.50;58.00;;;;;;6270888;23;20446;-75
2021/07/21 08:23:10;;;;;;;7.45;5.57;;;23.50;57.80;;;;;;6251780;28;20506;-75
2021/07/21 08:26:12;;;;;;;7.63;5.78;;;23.50;58.70;;;;;;6251339;28;20140;-75
2021/07/21 08:29:15;;;;;;;6.80;5.82;;;23.70;59.10;;;;;;6252191;28;20136;-75
2021/07/21 08:32:17;;;;;;;7.55;5.50;;;23.90;57.70;;;;;;6251560;28;20518;-75
2021/07/21 08:35:21;;;;;;;8.73;5.53;;;23.90;58.60;;;;;;6252009;28;20073;-75
2021/07/21 08:38:23;;;;;;;9.20;6.15;;;24.10;57.70;;;;;;6251159;28;20521;-75
2021/07/21 08:41:26;;;;;;;7.53;6.70;;;24.20;58.00;;;;;;6252146;28;20219;-76
2021/07/21 08:44:28;;;;;;;7.78;6.05;;;24.30;57.80;;;;;;6251275;28;20071;-76
2021/07/21 08:47:30;;;;;;;7.60;6.25;;;24.40;57.00;;;;;;6251202;28;20128;-76
2021/07/21 08:50:33;;;;;;;8.60;6.47;;;24.60;55.60;;;;;;6251527;28;20061;-73
2021/07/21 08:53:37;;;;;;;8.70;6.25;;;24.70;55.30;;;;;;6251845;28;20042;-74
2021/07/21 08:56:39;;;;;;;8.70;6.43;;;24.90;55.30;;;;;;6250293;28;20060;-74
2021/07/21 08:59:43;;;;;;;6.57;5.30;;;25.10;54.20;;;;;;6250556;28;20094;-77
2021/07/21 09:02:46;;;;;;;11.63;6.40;;;25.10;55.10;;;;;;6251258;28;20051;-75
2021/07/21 09:05:50;;;;;;;7.43;6.70;;;25.20;54.00;;;;;;6249305;28;20136;-75
2021/07/21 09:08:52;;;;;;;9.45;5.95;;;25.10;54.60;;;;;;6249982;28;20049;-75
2021/07/21 09:11:56;;;;;;;9.70;5.60;;;25.20;54.00;;;;;;6250780;28;20410;-75
2021/07/21 09:14:58;;;;;;;9.30;6.82;;;25.30;54.10;;;;;;6250278;28;20446;-75
2021/07/21 09:18:05;;;;;;;12.30;6.10;;;25.40;54.10;;;;;;6249968;28;20075;-75
2021/07/21 09:21:09;;;;;;;7.53;6.25;;;25.40;52.90;;;;;;6251027;28;20046;-75
2021/07/21 09:24:20;;;;;;;8.73;5.28;;;25.40;53.20;;;;;;6250556;28;20056;-75
2021/07/21 09:27:27;;;;;;;9.05;6.25;;;25.40;53.60;;;;;;6249914;28;20050;-76
2021/07/21 09:30:31;;;;;;;10.30;6.35;;;25.50;53.90;;;;;;6250268;28;20133;-76
2021/07/21 09:33:33;;;;;;;8.98;5.78;;;25.50;53.00;;;;;;6250196;28;20449;-75
2021/07/21 09:36:36;;;;;;;9.48;6.07;;;25.60;52.90;;;;;;6249735;28;20050;-73
2021/07/21 09:39:39;;;;;;;7.47;6.43;;;25.70;53.40;;;;;;6250008;28;20510;-75
2021/07/21 09:42:41;;;;;;;8.75;6.05;;;25.90;53.00;;;;;;6249955;28;20049;-75
2021/07/21 09:45:46;;;;;;;9.25;6.55;;;25.90;51.70;;;;;;6250107;28;20046;-75
2021/07/21 09:48:49;;;;;;;8.50;5.80;;;26.10;51.80;;;;;;6249976;28;20195;-75
2021/07/21 09:51:52;;;;;;;9.38;6.53;;;26.20;51.00;;;;;;6249789;28;20049;-75
2021/07/21 09:55:09;;;;;;;9.25;5.32;;;26.30;51.20;;;;;;6249585;28;20610;-75
2021/07/21 09:58:12;;;;;;;6.30;4.97;;;26.40;50.60;;;;;;6249416;28;20049;-75
2021/07/21 10:01:14;;;;;;;8.00;6.07;;;26.40;49.50;;;;;;6250110;28;20183;-75
2021/07/21 10:04:33;;;;;;;9.32;5.88;;;26.40;49.50;;;;;;6249343;28;20522;-76
2021/07/21 10:11:20;;;;;;;6.93;5.20;;;26.30;51.20;;;;;;6238993;28;20529;-72
2021/07/21 10:14:22;;;;;;;8.07;4.93;;;26.50;50.30;;;;;;6249141;28;20132;-75
2021/07/21 10:17:23;;;;;;;10.20;5.90;;;26.60;49.40;;;;;;6249105;28;20076;-76
2021/07/21 10:20:25;;;;;;;7.60;5.45;;;26.90;48.30;;;;;;6248584;28;20045;-73
2021/07/21 10:23:28;;;;;;;8.25;6.97;;;27.00;48.00;;;;;;6249159;28;20115;-76
2021/07/21 10:26:30;;;;;;;9.40;5.85;;;27.10;46.80;;;;;;6248895;28;20115;-73
2021/07/21 10:29:33;;;;;;;8.73;5.72;;;27.10;47.10;;;;;;6247519;28;20114;-76
2021/07/21 10:32:36;;;;;;;8.23;5.40;;;27.10;46.00;;;;;;6247223;28;20132;-76
2021/07/21 10:35:38;;;;;;;11.15;4.35;;;27.00;45.70;;;;;;6248372;28;20076;-76
2021/07/21 10:38:41;;;;;;;7.75;5.55;;;27.20;46.50;;;;;;6248265;28;20511;-76
2021/07/21 10:41:45;;;;;;;6.53;5.22;;;27.60;47.30;;;;;;6248229;28;20045;-76
2021/07/21 10:44:56;;;;;;;5.93;4.70;;;28.00;46.40;;;;;;6248668;28;20124;-75
2021/07/21 10:48:05;;;;;;;6.72;5.15;;;28.20;45.80;;;;;;6247990;28;20045;-75
2021/07/21 10:51:12;;;;;;;8.90;6.03;;;28.30;45.40;;;;;;6248682;28;20056;-76
2021/07/21 10:54:28;;;;;;;5.97;5.00;;;28.40;45.40;;;;;;6248430;28;20060;-75
2021/07/21 11:00:51;;;;;;;8.20;5.65;;;28.70;45.20;;;;;;6248272;28;20065;-76
2021/07/21 11:04:02;;;;;;;13.27;6.72;;;28.90;45.10;;;;;;6248201;28;20124;-76
2021/07/21 11:07:04;;;;;;;7.32;5.60;;;28.80;43.60;;;;;;6247719;28;20053;-74
2021/07/21 11:10:08;;;;;;;10.35;6.15;;;28.70;43.40;;;;;;6248007;28;20055;-76
2021/07/21 11:13:12;;;;;;;9.00;5.22;;;28.50;44.00;;;;;;6248414;28;20045;-74
2021/07/21 11:16:44;;;;;;;7.80;5.47;;;28.60;44.20;;;;;;6247368;28;20423;-76
2021/07/21 11:19:48;;;;;;;9.80;5.13;;;28.90;43.90;;;;;;6247131;28;20053;-76
2021/07/21 11:22:50;;;;;;;7.32;4.40;;;29.10;43.60;;;;;;6247358;28;20045;-76
2021/07/21 11:26:25;;;;;;;9.20;5.28;;;29.40;43.70;;;;;;6247739;28;20051;-74
2021/07/21 11:29:48;;;;;;;7.07;5.57;;;29.50;43.70;;;;;;6247425;28;20107;-76
2021/07/21 11:32:50;;;;;;;6.25;5.05;;;29.70;43.40;;;;;;6248529;28;20107;-75
2021/07/21 11:35:53;;;;;;;6.55;5.88;;;29.70;43.40;;;;;;6246925;28;20050;-76
2021/07/21 11:38:55;;;;;;;7.43;5.72;;;29.90;42.90;;;;;;6247557;28;20115;-74
2021/07/21 11:41:57;;;;;;;9.65;5.47;;;29.90;41.60;;;;;;6247543;28;20054;-76
2021/07/21 11:45:13;;;;;;;9.88;5.97;;;29.80;42.80;;;;;;6247240;28;20037;-77
2021/07/21 11:48:15;;;;;;;8.82;5.47;;;29.60;41.70;;;;;;6246546;28;20128;-75
2021/07/21 11:51:17;;;;;;;10.20;5.53;;;29.70;42.30;;;;;;6246948;28;20045;-76
2021/07/21 11:54:21;;;;;;;7.07;6.35;;;29.90;43.40;;;;;;6246921;28;20138;-75
2021/07/21 11:57:26;;;;;;;5.93;5.30;;;30.10;42.70;;;;;;6247320;28;20145;-76
2021/07/21 12:00:29;;;;;;;8.15;5.68;;;30.20;42.80;;;;;;6233188;28;20045;-77
2021/07/21 12:03:44;;;;;;;10.05;5.57;;;30.10;43.10;;;;;;6222314;28;20529;-76
2021/07/21 12:06:51;;;;;;;7.45;5.85;;;30.30;42.50;;;;;;6222554;28;20046;-76
2021/07/21 12:09:54;;;;;;;8.40;6.15;;;30.30;42.20;;;;;;6224179;28;20137;-75
2021/07/21 12:12:56;;;;;;;10.43;5.35;;;30.10;41.50;;;;;;6227661;28;20505;-76
2021/07/21 12:16:00;;;;;;;13.73;6.32;;;29.90;43.40;;;;;;6246990;28;20400;-75
2021/07/21 12:19:05;;;;;;;6.93;5.53;;;30.00;43.00;;;;;;6246922;28;20045;-76
2021/07/21 12:22:09;;;;;;;7.22;6.30;;;30.20;42.60;;;;;;6246901;28;20053;-76
2021/07/21 12:25:13;;;;;;;6.22;5.15;;;30.30;42.00;;;;;;6247398;28;20098;-76
2021/07/21 12:28:15;;;;;;;6.95;5.63;;;30.30;41.60;;;;;;6246555;28;20045;-76
2021/07/21 12:31:29;;;;;;;9.40;5.72;;;30.40;42.20;;;;;;6247154;28;20045;-76
2021/07/21 12:34:31;;;;;;;7.88;5.53;;;30.60;42.40;;;;;;6246679;28;20049;-76
2021/07/21 12:37:38;;;;;;;6.55;5.82;;;30.70;41.90;;;;;;6246368;28;20396;-77
2021/07/21 12:40:43;;;;;;;7.07;6.38;;;30.90;41.20;;;;;;6246341;28;20066;-76
2021/07/21 12:43:45;;;;;;;10.55;6.82;;;31.30;41.00;;;;;;6246486;28;20049;-76
2021/07/21 12:47:08;;;;;;;9.52;5.65;;;31.40;40.40;;;;;;6246017;28;20046;-76
2021/07/21 12:50:12;;;;;;;19.45;6.70;;;31.50;40.70;;;;;;6245886;28;20135;-75
2021/07/21 12:53:20;;;;;;;7.72;5.85;;;31.60;40.60;;;;;;6246729;28;20049;-76
2021/07/21 12:56:21;;;;;;;7.65;6.22;;;31.80;40.50;;;;;;6245943;28;20132;-76
2021/07/21 12:59:35;;;;;;;12.00;5.85;;;32.00;40.10;;;;;;6245175;28;20131;-76
2021/07/21 13:02:38;;;;;;;7.43;5.18;;;32.10;39.70;;;;;;6228124;28;20045;-76
2021/07/21 13:05:42;;;;;;;8.13;5.95;;;32.40;40.00;;;;;;6226263;28;20192;-75
2021/07/21 13:08:49;;;;;;;7.50;6.80;;;32.00;38.90;;;;;;6225666;28;20507;-75
2021/07/21 13:11:51;;;;;;;7.28;6.57;;;32.00;40.00;;;;;;6226020;28;20046;-76
2021/07/21 13:14:58;;;;;;;9.90;5.90;;;32.10;40.80;;;;;;6246707;28;20099;-76
2021/07/21 13:18:04;;;;;;;6.80;5.40;;;32.20;40.30;;;;;;6250372;28;20081;-75
2021/07/21 13:21:23;;;;;;;10.30;6.00;;;32.20;40.00;;;;;;6250341;28;20049;-76
2021/07/21 13:24:26;;;;;;;10.00;7.28;;;32.30;40.40;;;;;;6249998;28;20486;-76
2021/07/21 13:27:30;;;;;;;9.18;6.60;;;32.40;40.00;;;;;;6250073;28;20041;-75
2021/07/21 13:30:31;;;;;;;9.48;6.85;;;32.50;39.70;;;;;;6249758;28;20053;-76
2021/07/21 13:33:35;;;;;;;11.48;6.25;;;32.60;39.10;;;;;;6250568;28;20388;-76
2021/07/21 13:36:41;;;;;;;8.45;6.20;;;32.60;39.00;;;;;;6249311;28;20132;-76
2021/07/21 13:39:46;;;;;;;8.13;7.30;;;32.70;39.80;;;;;;6249874;28;20176;-76
2021/07/21 13:43:03;;;;;;;7.82;6.03;;;32.70;39.20;;;;;;6249206;28;20045;-76
2021/07/21 13:46:26;;;;;;;7.30;5.97;;;32.80;39.00;;;;;;6249711;28;20056;-76
2021/07/21 13:49:30;;;;;;;7.65;6.25;;;32.80;38.90;;;;;;6249722;28;20121;-76
2021/07/21 13:52:32;;;;;;;8.02;6.30;;;32.80;38.10;;;;;;6249182;28;20055;-76
2021/07/21 13:55:34;;;;;;;6.70;5.82;;;32.80;38.20;;;;;;6249301;28;20499;-76
2021/07/21 13:58:37;;;;;;;7.50;6.25;;;32.80;38.30;;;;;;6249443;28;20459;-76
2021/07/21 14:01:39;;;;;;;7.93;5.95;;;32.80;37.90;;;;;;6246797;28;20053;-76
2021/07/21 14:04:42;;;;;;;8.07;6.85;;;32.80;38.20;;;;;;6248669;28;20053;-77
2021/07/21 14:07:44;;;;;;;8.38;7.03;;;32.80;37.90;;;;;;6248923;28;20458;-76
2021/07/21 14:10:46;;;;;;;7.30;6.43;;;32.70;38.10;;;;;;6249633;28;20095;-77
2021/07/21 14:13:48;;;;;;;11.23;6.45;;;32.60;38.00;;;;;;6248720;28;20591;-75
2021/07/21 14:16:50;;;;;;;6.45;5.85;;;32.60;38.70;;;;;;6248420;28;20196;-76
2021/07/21 14:19:53;;;;;;;9.55;6.90;;;32.60;38.00;;;;;;6248844;28;20049;-76
2021/07/21 14:22:55;;;;;;;7.15;5.32;;;32.60;38.30;;;;;;6249496;23;20392;-77
2021/07/21 14:25:57;;;;;;;9.95;6.85;;;32.60;38.00;;;;;;6217072;28;20200;-77
2021/07/21 14:29:00;;;;;;;8.35;6.43;;;32.60;38.00;;;;;;6224814;28;20046;-77
2021/07/21 14:32:02;;;;;;;8.75;5.97;;;32.60;37.70;;;;;;6225432;28;20049;-77
2021/07/21 14:35:06;;;;;;;9.82;7.35;;;32.50;38.30;;;;;;6223878;28;20439;-77
2021/07/21 14:38:08;;;;;;;10.00;4.95;;;32.50;38.40;;;;;;6225674;28;20133;-78
2021/07/21 14:41:10;;;;;;;7.72;5.90;;;32.40;37.80;;;;;;6225637;28;20079;-78
2021/07/21 14:44:12;;;;;;;13.55;7.18;;;32.40;38.10;;;;;;6226313;28;20076;-79
2021/07/21 14:47:15;;;;;;;6.47;5.78;;;32.40;38.20;;;;;;6225642;28;20046;-77
2021/07/21 14:50:18;;;;;;;7.57;6.03;;;32.40;38.00;;;;;;6226628;28;20131;-77
2021/07/21 14:53:20;;;;;;;10.95;6.40;;;32.40;37.60;;;;;;6227791;28;20050;-77
2021/07/21 14:56:23;;;;;;;9.13;6.10;;;32.40;37.90;;;;;;6224185;28;20080;-77
2021/07/21 14:59:24;;;;;;;10.18;6.53;;;32.30;37.40;;;;;;6223629;28;20068;-77
2021/07/21 15:02:26;;;;;;;6.60;5.78;;;32.30;37.50;;;;;;6216949;28;20181;-77
2021/07/21 15:05:29;;;;;;;9.38;5.55;;;32.30;37.80;;;;;;6223905;28;20566;-77
2021/07/21 15:08:31;;;;;;;7.63;5.45;;;32.30;37.60;;;;;;6223485;28;20189;-77
2021/07/21 15:11:36;;;;;;;6.70;6.00;;;32.20;37.70;;;;;;6224116;28;20042;-77
2021/07/21 15:14:38;;;;;;;9.52;6.05;;;32.00;37.90;;;;;;6224755;28;20077;-77
2021/07/21 15:17:40;;;;;;;8.02;6.45;;;32.00;37.90;;;;;;6225452;28;20054;-78
2021/07/21 15:20:43;;;;;;;7.75;6.25;;;32.00;37.40;;;;;;6223782;28;20046;-77
2021/07/21 15:23:45;;;;;;;11.65;5.65;;;32.10;37.40;;;;;;6223629;28;20137;-77
2021/07/21 15:26:47;;;;;;;7.18;5.50;;;32.20;37.40;;;;;;6223375;28;20065;-77
2021/07/21 15:29:49;;;;;;;8.38;6.72;;;32.20;37.40;;;;;;6224543;28;20136;-77
2021/07/21 15:32:51;;;;;;;7.68;6.30;;;32.40;37.60;;;;;;6223323;28;20132;-77
2021/07/21 15:35:55;;;;;;;7.10;6.07;;;32.40;37.10;;;;;;6223159;28;20064;-77
2021/07/21 15:38:57;;;;;;;10.02;6.35;;;32.40;36.90;;;;;;6223512;28;20050;-77
2021/07/21 15:41:59;;;;;;;9.52;6.35;;;32.40;37.30;;;;;;6223883;28;20057;-77
2021/07/21 15:45:01;;;;;;;8.05;6.72;;;32.40;36.90;;;;;;6223504;28;20053;-77
2021/07/21 15:48:03;;;;;;;13.43;6.60;;;32.30;37.10;;;;;;6222634;28;20089;-77
2021/07/21 15:51:06;;;;;;;8.70;6.95;;;32.30;36.60;;;;;;6223447;28;20100;-77
2021/07/21 15:54:08;;;;;;;7.85;6.18;;;32.20;37.50;;;;;;6222910;28;20050;-77
2021/07/21 15:57:10;;;;;;;7.13;6.43;;;32.20;37.20;;;;;;6223424;28;20045;-77
2021/07/21 16:00:15;;;;;;;10.77;6.32;;;32.20;37.30;;;;;;6223127;28;20066;-77
2021/07/21 16:03:17;;;;;;;9.10;5.38;;;32.20;36.60;;;;;;6221781;28;20129;-77
2021/07/21 16:06:21;;;;;;;8.05;6.38;;;32.20;36.80;;;;;;6219549;28;20053;-77